createdAt,value
2019-04-22T00:05:11.506Z,5.00
2019-04-22T00:10:32.372Z,5.00
2019-04-22T00:15:32.567Z,5.50
2019-04-22T00:20:45.464Z,4.80
2019-04-22T00:25:57.270Z,5.40
2019-04-22T00:31:02.854Z,5.00
2019-04-22T00:36:09.551Z,5.00
2019-04-22T00:41:14.904Z,4.20
2019-04-22T00:46:17.579Z,5.50
2019-04-22T00:51:28.822Z,4.50
2019-04-22T00:56:28.305Z,4.40
2019-04-22T01:01:39.785Z,5.00
2019-04-22T01:06:41.382Z,4.80
2019-04-22T01:11:50.546Z,5.00
2019-04-22T01:16:53.781Z,4.00
2019-04-22T01:21:58.258Z,4.20
2019-04-22T01:27:04.664Z,3.40
2019-04-22T01:31:51.057Z,3.75
2019-04-22T01:37:18.767Z,4.40
2019-04-22T01:42:37.360Z,5.00
2019-04-22T01:47:36.734Z,5.00
2019-04-22T01:52:47.320Z,4.25
2019-04-22T01:57:47.632Z,4.00
2019-04-22T02:02:57.514Z,3.75
2019-04-22T02:08:06.824Z,3.75
2019-04-22T02:13:08.056Z,5.00
2019-04-22T02:18:17.843Z,5.00
2019-04-22T02:28:38.311Z,3.00
2019-04-22T02:34:08.999Z,4.00
2019-04-22T02:59:14.337Z,4.00
2019-04-22T03:04:31.864Z,4.20
2019-04-22T03:09:25.733Z,3.00
2019-04-22T03:14:30.279Z,2.75
2019-04-22T03:25:23.798Z,3.00
2019-04-22T03:40:36.846Z,2.80
2019-04-22T03:50:37.014Z,4.20
2019-04-22T03:55:53.157Z,3.60
2019-04-22T04:06:00.374Z,3.00
2019-04-22T04:11:09.674Z,3.60
2019-04-22T04:16:19.574Z,2.00
2019-04-22T04:31:43.189Z,3.00
2019-04-22T04:36:42.246Z,3.00
2019-04-22T04:41:54.280Z,2.75
2019-04-22T04:47:05.368Z,3.80
2019-04-22T04:52:10.435Z,4.00
2019-04-22T04:57:32.017Z,3.00
2019-04-22T05:02:12.305Z,4.00
2019-04-22T05:07:17.916Z,3.20
2019-04-22T05:12:35.521Z,2.00
2019-04-22T05:17:27.586Z,2.20
2019-04-22T05:27:40.019Z,2.00
2019-04-22T05:37:54.726Z,2.00
2019-04-22T05:42:51.255Z,2.25
2019-04-22T05:47:57.559Z,3.00
2019-04-22T05:53:16.591Z,1.25
2019-04-22T05:58:12.395Z,3.00
2019-04-22T06:03:12.242Z,2.00
2019-04-22T06:08:22.021Z,2.00
2019-04-22T06:13:26.763Z,2.80
2019-04-22T06:18:33.305Z,2.00
2019-04-22T06:28:48.172Z,2.00
2019-04-22T06:33:54.755Z,3.00
2019-04-22T06:38:54.435Z,3.00
2019-04-22T06:44:05.074Z,1.40
2019-04-22T06:49:11.124Z,3.00
2019-04-22T06:54:17.964Z,2.25
2019-04-22T07:00:05.539Z,3.00
2019-04-22T07:04:58.287Z,7.60
2019-04-22T07:10:08.200Z,7.75
2019-04-22T07:15:21.845Z,8.20
2019-04-22T07:20:10.560Z,9.40
2019-04-22T07:25:32.739Z,10.00
2019-04-22T07:30:21.903Z,8.60
2019-04-22T07:40:40.574Z,7.60
2019-04-22T07:45:45.772Z,6.60
2019-04-22T07:51:02.907Z,7.00
2019-04-22T07:55:55.457Z,5.50
2019-04-22T08:01:03.795Z,6.50
2019-04-22T08:11:22.217Z,6.00
2019-04-22T08:16:29.129Z,7.60
2019-04-22T08:21:19.747Z,7.20
2019-04-22T08:26:27.619Z,7.00
2019-04-22T08:31:35.693Z,7.00
2019-04-22T08:46:57.851Z,5.80
2019-04-22T08:51:56.253Z,5.25
2019-04-22T08:57:01.886Z,6.00
2019-04-22T09:02:13.285Z,5.40
2019-04-22T09:07:20.955Z,7.00
2019-04-22T09:12:25.864Z,7.00
2019-04-22T09:17:31.574Z,7.00
2019-04-22T09:22:47.290Z,8.25
2019-04-22T09:27:48.474Z,7.00
2019-04-22T09:32:45.174Z,7.00
2019-04-22T09:38:01.658Z,5.80
2019-04-22T09:43:00.645Z,7.00
2019-04-22T09:48:06.847Z,7.00
2019-04-22T09:53:13.390Z,8.00
2019-04-22T09:58:09.443Z,8.00
2019-04-22T10:03:19.972Z,6.40
2019-04-22T10:08:31.638Z,7.00
2019-04-22T10:13:34.629Z,6.75
2019-04-22T10:18:42.034Z,9.00
2019-04-22T10:23:44.310Z,15.75
2019-04-22T10:28:52.502Z,21.20
2019-04-22T10:33:46.563Z,23.00
2019-04-22T10:38:34.606Z,21.20
2019-04-22T10:43:39.175Z,22.00
2019-04-22T10:48:44.261Z,20.20
2019-04-22T10:53:49.380Z,20.50
2019-04-22T10:58:53.625Z,19.00
2019-04-22T11:03:59.471Z,18.60
2019-04-22T11:09:06.256Z,12.40
2019-04-22T11:14:10.698Z,15.50
2019-04-22T11:19:14.910Z,13.25
2019-04-22T11:24:19.034Z,10.50
2019-04-22T11:29:23.781Z,10.00
2019-04-22T11:34:29.078Z,10.00
2019-04-22T11:39:36.494Z,9.00
2019-04-22T11:44:39.230Z,9.80
2019-04-22T11:49:43.895Z,9.00
2019-04-22T11:54:48.584Z,9.00
2019-04-22T11:59:52.898Z,9.20
2019-04-22T12:04:58.186Z,7.75
2019-04-22T12:10:15.092Z,7.80
2019-04-22T12:15:10.676Z,6.60
2019-04-22T12:20:18.423Z,7.00
2019-04-22T12:25:36.144Z,6.60
2019-04-22T12:30:30.861Z,6.60
2019-04-22T12:35:35.026Z,6.40
2019-04-22T12:40:48.654Z,5.40
2019-04-22T12:45:44.900Z,5.80
2019-04-22T12:50:52.137Z,5.25
2019-04-22T12:55:55.458Z,7.00
2019-04-22T13:01:01.238Z,5.75
2019-04-22T13:06:05.959Z,4.60
2019-04-22T13:11:15.423Z,4.00
2019-04-22T13:16:17.469Z,4.00
2019-04-22T13:21:22.785Z,4.00
2019-04-22T13:26:27.278Z,5.00
2019-04-22T13:31:32.869Z,4.00
2019-04-22T13:36:40.025Z,4.00
2019-04-22T13:41:48.755Z,3.25
2019-04-22T13:52:35.256Z,4.00
2019-04-22T13:57:19.869Z,4.40
2019-04-22T14:02:34.657Z,3.60
2019-04-22T14:07:38.926Z,3.25
2019-04-22T14:12:42.938Z,3.80
2019-04-22T14:17:47.209Z,3.25
2019-04-22T14:22:52.648Z,2.20
2019-04-22T14:28:03.644Z,4.00
2019-04-22T14:33:02.756Z,2.75
2019-04-22T14:38:08.410Z,3.80
2019-04-22T14:44:43.034Z,3.00
2019-04-22T14:48:45.878Z,3.20
2019-04-22T14:53:43.333Z,3.00
2019-04-22T14:58:31.063Z,2.50
2019-04-22T15:03:39.943Z,2.60
2019-04-22T15:08:42.635Z,2.40
2019-04-22T15:13:47.475Z,2.00
2019-04-22T15:18:56.017Z,2.00
2019-04-22T15:24:20.503Z,3.00
2019-04-22T15:29:25.414Z,2.20
2019-04-22T15:34:32.577Z,2.60
2019-04-22T15:39:36.811Z,2.25
2019-04-22T15:44:42.208Z,1.80
2019-04-22T15:49:47.841Z,2.00
2019-04-22T15:54:53.883Z,1.25
2019-04-22T16:00:14.768Z,2.25
2019-04-22T16:05:04.492Z,2.00
2019-04-22T16:10:10.122Z,3.00
2019-04-22T16:15:16.096Z,1.80
2019-04-22T16:20:21.631Z,2.50
2019-04-22T16:25:47.197Z,1.00
2019-04-22T16:30:51.410Z,2.20
2019-04-22T16:35:55.583Z,2.00
2019-04-22T16:41:00.912Z,2.00
2019-04-22T16:46:05.668Z,1.40
2019-04-22T16:51:10.018Z,2.00
2019-04-22T16:56:15.195Z,1.75
2019-04-22T17:01:38.702Z,2.00
2019-04-22T17:06:43.624Z,2.50
2019-04-22T17:11:48.029Z,1.00
2019-04-22T17:16:52.883Z,1.50
2019-04-22T17:21:57.642Z,2.00
2019-04-22T17:27:02.258Z,2.00
2019-04-22T17:32:13.222Z,1.75
2019-04-22T17:37:19.191Z,3.25
2019-04-22T17:42:39.931Z,1.50
2019-04-22T17:48:04.324Z,2.00
2019-04-22T17:53:15.194Z,2.50
2019-04-22T17:58:21.054Z,3.00
2019-04-22T18:03:13.099Z,3.40
2019-04-22T18:08:25.606Z,3.00
2019-04-22T18:13:40.983Z,3.00
2019-04-22T18:18:36.932Z,4.00
2019-04-22T18:23:29.404Z,3.80
2019-04-22T18:28:50.881Z,3.00
2019-04-22T18:33:52.699Z,2.25
2019-04-22T18:39:06.346Z,3.00
2019-04-22T18:44:09.971Z,3.00
2019-04-22T18:49:11.084Z,2.40
2019-04-22T18:54:48.449Z,2.40
2019-04-22T18:59:33.811Z,3.00
2019-04-22T19:04:44.369Z,2.40
2019-04-22T19:10:13.342Z,3.00
2019-04-22T19:15:12.921Z,3.20
2019-04-22T19:20:18.763Z,3.00
2019-04-22T19:25:15.340Z,4.00
2019-04-22T19:30:30.225Z,4.20
2019-04-22T19:35:26.875Z,3.00
2019-04-22T19:40:47.876Z,5.00
2019-04-22T19:45:39.886Z,4.00
2019-04-22T19:51:00.174Z,3.00
2019-04-22T19:55:53.900Z,4.00
2019-04-22T20:01:25.485Z,5.80
2019-04-22T20:06:47.761Z,5.00
2019-04-22T20:11:57.440Z,3.25
2019-04-22T20:16:54.442Z,4.00
2019-04-22T20:22:03.111Z,5.00
2019-04-22T20:27:15.281Z,4.00
2019-04-22T20:32:18.830Z,3.75
2019-04-22T20:37:29.978Z,5.00
2019-04-22T20:42:48.761Z,5.25
2019-04-22T20:47:32.278Z,4.60
2019-04-22T20:52:50.265Z,5.60
2019-04-22T20:57:48.293Z,5.75
2019-04-22T21:02:43.957Z,5.00
2019-04-22T21:08:05.283Z,6.00
2019-04-22T21:13:00.124Z,5.00
2019-04-22T21:18:08.263Z,5.00
2019-04-22T21:23:11.055Z,5.00
2019-04-22T21:28:21.661Z,5.25
2019-04-22T21:33:20.948Z,7.75
2019-04-22T21:38:33.172Z,5.20
2019-04-22T21:43:44.943Z,5.00
2019-04-22T21:48:46.352Z,5.40
2019-04-22T21:53:58.601Z,6.00
2019-04-22T21:59:05.167Z,7.00
2019-04-22T22:04:05.038Z,5.50
2019-04-22T22:09:15.569Z,6.00
2019-04-22T22:14:16.989Z,5.00
2019-04-22T22:19:22.456Z,6.40
2019-04-22T22:24:34.244Z,5.50
2019-04-22T22:29:50.325Z,5.40
2019-04-22T22:34:42.642Z,6.20
2019-04-22T22:39:39.207Z,6.00
2019-04-22T22:44:40.418Z,5.25
2019-04-22T22:49:57.612Z,5.40
2019-04-22T22:55:04.214Z,5.00
2019-04-22T23:00:14.984Z,6.75
2019-04-22T23:05:21.780Z,4.60
2019-04-22T23:10:25.285Z,6.20
2019-04-22T23:15:25.701Z,5.80
2019-04-22T23:20:19.561Z,6.00
2019-04-22T23:25:45.040Z,4.60
2019-04-22T23:30:56.746Z,5.00
2019-04-22T23:36:08.764Z,6.00
2019-04-22T23:41:45.824Z,5.00
2019-04-22T23:46:55.326Z,6.00
2019-04-22T23:52:10.177Z,6.00
2019-04-22T23:57:04.633Z,6.00
